createdAt,value
2023-02-22T00:03:01.767Z,24.3
2023-02-22T00:08:54.254Z,23.2
2023-02-22T00:14:46.721Z,22.8
2023-02-22T00:20:39.864Z,22.9
2023-02-22T00:26:31.603Z,24.2
2023-02-22T00:32:09.293Z,23.8
2023-02-22T00:37:47.101Z,22.9
2023-02-22T00:43:39.302Z,22.6
2023-02-22T00:49:01.301Z,22.9
2023-02-22T00:54:54.372Z,24
2023-02-22T01:00:46.792Z,23.9
2023-02-22T01:06:40.910Z,23
2023-02-22T01:12:19.181Z,22.7
2023-02-22T01:17:56.070Z,22.9
2023-02-22T01:23:49.983Z,24.1
2023-02-22T01:29:43.663Z,24.1
2023-02-22T01:35:20.428Z,23.2
2023-02-22T01:40:57.712Z,22.5
2023-02-22T01:46:36.220Z,22.2
2023-02-22T01:52:28.088Z,21.9
2023-02-22T01:58:20.144Z,21.9
2023-02-22T02:04:12.996Z,23.7
2023-02-22T02:10:05.682Z,24.6
2023-02-22T02:15:42.171Z,23.6
2023-02-22T02:21:04.845Z,22.9
2023-02-22T02:26:41.884Z,22.4
2023-02-22T02:32:34.617Z,22.1
2023-02-22T02:38:28.700Z,21.9
2023-02-22T02:43:50.549Z,22.9
2023-02-22T02:49:43.416Z,23.6
2023-02-22T02:55:37.179Z,23.5
2023-02-22T03:01:13.136Z,24.4
2023-02-22T03:07:06.657Z,23.8
2023-02-22T03:12:59.796Z,23.1
2023-02-22T03:18:52.241Z,22.5
2023-02-22T03:24:44.794Z,22.2
2023-02-22T03:30:37.245Z,21.9
2023-02-22T03:36:14.056Z,22.4
2023-02-22T03:41:51.891Z,23.9
2023-02-22T03:47:30.271Z,24.5
2023-02-22T03:53:22.932Z,23.6
2023-02-22T03:58:46.015Z,22.8
2023-02-22T04:04:39.979Z,22.3
2023-02-22T04:10:01.103Z,22.1
2023-02-22T04:15:53.700Z,21.9
2023-02-22T04:21:47.084Z,22.6
2023-02-22T04:27:38.757Z,23.9
2023-02-22T04:33:16.266Z,24.4
2023-02-22T04:38:55.421Z,23.4
2023-02-22T04:44:31.733Z,22.8
2023-02-22T04:50:26.381Z,22.3
2023-02-22T04:56:20.216Z,21
2023-02-22T05:02:12.705Z,20.6
2023-02-22T05:07:49.159Z,22.5
2023-02-22T05:13:11.774Z,24.2
2023-02-22T05:19:04.209Z,24.3
2023-02-22T05:24:56.626Z,23
2023-02-22T05:30:50.477Z,22.2
2023-02-22T05:36:44.218Z,21.5
2023-02-22T05:42:36.253Z,21.4
2023-02-22T05:54:08.457Z,21.5
2023-02-22T06:00:01.234Z,22.3
2023-02-22T06:05:38.917Z,21.8
2023-02-22T06:11:30.712Z,22.8
2023-02-22T06:17:22.550Z,23.1
2023-02-22T06:23:00.614Z,22.2
2023-02-22T06:28:37.566Z,21.6
2023-02-22T06:34:15.050Z,21.4
2023-02-22T06:39:52.827Z,21.3
2023-02-22T06:45:30.439Z,21.4
2023-02-22T06:51:09.218Z,22.7
2023-02-22T06:56:47.194Z,23.4
2023-02-22T07:02:24.478Z,22.8
2023-02-22T07:08:02.975Z,22.2
2023-02-22T07:13:43.541Z,22.1
2023-02-22T07:19:20.893Z,23.3
2023-02-22T07:24:43.176Z,23.3
2023-02-22T07:30:37.378Z,22.4
2023-02-22T07:36:31.300Z,22.1
2023-02-22T07:42:24.934Z,22.6
2023-02-22T07:48:18.705Z,23.7
2023-02-22T07:54:10.584Z,22.6
2023-02-22T08:00:02.050Z,22.1
2023-02-22T08:05:55.656Z,22.1
2023-02-22T08:11:47.789Z,23.6
2023-02-22T08:17:25.532Z,22.9
2023-02-22T08:23:19.545Z,22.3
2023-02-22T08:29:12.575Z,22.3
2023-02-22T08:35:10.477Z,23.8
2023-02-22T08:41:04.191Z,23.3
2023-02-22T08:46:56.897Z,22.5
2023-02-22T08:52:50.416Z,22.3
2023-02-22T08:58:44.275Z,23.5
2023-02-22T09:04:50.063Z,23.3
2023-02-22T09:10:42.006Z,22.7
2023-02-22T09:16:39.399Z,22.4
2023-02-22T09:22:41.063Z,23.3
2023-02-22T09:28:40.066Z,22.9
2023-02-22T09:34:21.919Z,22.4
2023-02-22T09:40:15.627Z,21.9
2023-02-22T09:46:08.048Z,21.9
2023-02-22T09:52:02.319Z,21.8
2023-02-22T09:57:39.838Z,21.6
2023-02-22T10:03:32.319Z,21.4
2023-02-22T10:09:10.908Z,21.3
2023-02-22T10:19:54.912Z,20.9
2023-02-22T10:25:32.866Z,20.8
2023-02-22T10:31:32.153Z,20.6
2023-02-22T10:37:26.155Z,20.4
2023-02-22T10:42:49.610Z,20.5
2023-02-22T10:48:28.723Z,20.6
2023-02-22T10:54:05.670Z,20.3
2023-02-22T10:59:48.386Z,20.3
2023-02-22T11:05:25.608Z,20.2
2023-02-22T11:11:03.734Z,20.1
2023-02-22T11:16:27.148Z,19.9
2023-02-22T11:22:06.343Z,19.9
2023-02-22T11:27:52.211Z,19.8
2023-02-22T11:33:47.227Z,19.8
2023-02-22T11:39:38.918Z,19.7
2023-02-22T11:45:16.062Z,19.6
2023-02-22T11:51:04.116Z,19.6
2023-02-22T11:56:54.605Z,19.3
2023-02-22T12:02:31.448Z,19
2023-02-22T12:08:40.597Z,19.4
2023-02-22T12:14:33.447Z,19.6
2023-02-22T12:20:35.748Z,19.8
2023-02-22T12:26:39.046Z,19.8
2023-02-22T12:32:22.920Z,19.8
2023-02-22T12:37:44.652Z,19.8
2023-02-22T12:43:50.160Z,19.6
2023-02-22T12:49:42.722Z,19
2023-02-22T12:55:47.311Z,18.9
2023-02-22T13:01:09.696Z,18.9
2023-02-22T13:07:15.945Z,18.9
2023-02-22T13:13:09.083Z,18.8
2023-02-22T13:19:02.563Z,18.6
2023-02-22T13:30:32.454Z,18.5
2023-02-22T13:36:12.362Z,18.6
2023-02-22T13:42:05.822Z,18.8
2023-02-22T13:47:58.801Z,18.8
2023-02-22T13:53:54.909Z,19
2023-02-22T13:59:52.526Z,19.1
2023-02-22T14:05:47.265Z,19.2
2023-02-22T14:17:29.019Z,18.9
2023-02-22T14:23:22.171Z,19.1
2023-02-22T14:29:25.264Z,19.1
2023-02-22T14:35:50.402Z,19.2
2023-02-22T14:41:45.043Z,19.2
2023-02-22T14:47:42.075Z,19.2
2023-02-22T14:53:48.976Z,19.2
2023-02-22T14:59:26.171Z,19.2
2023-02-22T15:05:45.929Z,19.3
2023-02-22T15:11:41.630Z,19.3
2023-02-22T15:17:45.347Z,19.3
2023-02-22T15:23:41.275Z,19.1
2023-02-22T15:29:31.299Z,19
2023-02-22T15:35:45.763Z,19.1
2023-02-22T15:41:40.049Z,19.2
2023-02-22T15:47:42.530Z,19.2
2023-02-22T15:53:35.220Z,19.1
2023-02-22T15:59:23.577Z,19.1
2023-02-22T16:05:27.666Z,19.1
2023-02-22T16:11:21.449Z,19.1
2023-02-22T16:17:28.749Z,19.1
2023-02-22T16:23:40.317Z,19
2023-02-22T16:29:30.656Z,18.8
2023-02-22T16:35:22.898Z,18.6
2023-02-22T16:41:16.507Z,18.6
2023-02-22T16:46:54.329Z,18.6
2023-02-22T16:52:32.926Z,18.6
2023-02-22T16:58:11.019Z,18.5
2023-02-22T17:04:03.352Z,18.5
2023-02-22T17:09:56.240Z,18.5
2023-02-22T17:15:50.767Z,18.5
2023-02-22T17:21:27.560Z,18.5
2023-02-22T17:27:05.925Z,18.5
2023-02-22T17:32:43.680Z,18.6
2023-02-22T17:38:38.176Z,18.6
2023-02-22T17:44:31.673Z,18.5
2023-02-22T17:50:24.622Z,18.4
2023-02-22T18:02:20.329Z,18.8
2023-02-22T18:07:42.452Z,18.8
2023-02-22T18:13:20.079Z,18.6
2023-02-22T18:18:58.144Z,18.5
2023-02-22T18:24:52.085Z,18.4
2023-02-22T18:30:57.728Z,18.4
2023-02-22T18:36:51.785Z,18.5
2023-02-22T18:42:45.135Z,18.6
2023-02-22T18:48:39.295Z,18.6
2023-02-22T18:54:36.621Z,18.4
2023-02-22T19:00:30.609Z,18.3
2023-02-22T19:06:25.440Z,18.3
2023-02-22T19:12:19.535Z,18.3
2023-02-22T19:18:15.698Z,18.3
2023-02-22T19:24:12.942Z,18.3
2023-02-22T19:30:06.039Z,18.2
2023-02-22T19:36:01.763Z,18.2
2023-02-22T19:41:59.434Z,18.2
2023-02-22T19:47:53.631Z,18.2
2023-02-22T19:53:47.586Z,18.2
2023-02-22T19:59:41.010Z,18.4
2023-02-22T20:05:36.036Z,18.5
2023-02-22T20:11:29.442Z,18.6
2023-02-22T20:17:06.252Z,18.6
2023-02-22T20:23:00.770Z,18.4
2023-02-22T20:28:41.475Z,18.3
2023-02-22T20:34:37.397Z,18.3
2023-02-22T20:40:15.705Z,18.3
2023-02-22T20:45:52.496Z,18.2
2023-02-22T20:51:45.858Z,18.2
2023-02-22T20:57:42.269Z,18.2
2023-02-22T21:03:35.588Z,18.1
2023-02-22T21:09:30.671Z,21.5
2023-02-22T21:15:27.342Z,23.7
2023-02-22T21:21:21.229Z,25
2023-02-22T21:26:57.990Z,24.6
2023-02-22T21:33:07.819Z,24.8
2023-02-22T21:39:00.199Z,24.1
2023-02-22T21:44:53.745Z,24.7
2023-02-22T21:50:47.034Z,23.2
2023-02-22T21:56:39.909Z,23.1
2023-02-22T22:02:33.226Z,23.9
2023-02-22T22:08:26.776Z,24.3
2023-02-22T22:14:25.781Z,22.6
2023-02-22T22:20:17.630Z,23.3
2023-02-22T22:26:11.760Z,24.1
2023-02-22T22:32:04.771Z,22.7
2023-02-22T22:37:41.520Z,22.6
2023-02-22T22:43:19.607Z,23.8
2023-02-22T22:48:57.247Z,23.8
2023-02-22T22:54:51.734Z,22.4
2023-02-22T23:00:44.695Z,22.6
2023-02-22T23:06:39.323Z,23.5
2023-02-22T23:12:32.177Z,23.4
2023-02-22T23:18:26.569Z,22.3
2023-02-22T23:24:18.718Z,23
2023-02-22T23:29:55.089Z,23.9
2023-02-22T23:35:50.605Z,22.9
2023-02-22T23:41:45.366Z,22
2023-02-22T23:47:23.297Z,21.6
2023-02-22T23:53:02.021Z,21.4
2023-02-22T23:58:54.415Z,21.3
